createdAt,value
2023-03-15T00:01:59.276Z,3.00
2023-03-15T00:04:58.373Z,3.50
2023-03-15T00:07:37.776Z,3.53
2023-03-15T00:10:41.895Z,3.13
2023-03-15T00:13:32.631Z,3.60
2023-03-15T00:16:21.132Z,3.78
2023-03-15T00:19:06.985Z,3.60
2023-03-15T00:21:44.060Z,4.38
2023-03-15T00:24:19.653Z,1.77
2023-03-15T00:27:00.098Z,2.20
2023-03-15T00:29:40.948Z,1.70
2023-03-15T00:32:38.494Z,3.13
2023-03-15T00:35:13.575Z,4.40
2023-03-15T00:37:55.350Z,3.55
2023-03-15T00:40:45.934Z,4.63
2023-03-15T00:43:29.398Z,4.05
2023-03-15T00:46:06.239Z,4.38
2023-03-15T00:48:42.737Z,3.50
2023-03-15T00:51:45.603Z,4.38
2023-03-15T00:55:23.797Z,4.72
2023-03-15T00:58:22.944Z,4.18
2023-03-15T01:01:11.963Z,3.78
2023-03-15T01:04:07.792Z,4.95
2023-03-15T01:07:13.896Z,3.28
2023-03-15T01:10:21.426Z,2.63
2023-03-15T01:13:01.737Z,3.50
2023-03-15T01:15:36.861Z,3.40
2023-03-15T01:18:16.331Z,3.50
2023-03-15T01:25:12.474Z,3.05
2023-03-15T01:27:44.991Z,2.70
2023-03-15T01:30:24.137Z,4.43
2023-03-15T01:32:52.994Z,3.00
2023-03-15T01:35:25.757Z,3.13
2023-03-15T01:38:06.677Z,3.25
2023-03-15T01:41:17.590Z,4.22
2023-03-15T01:43:56.000Z,4.50
2023-03-15T01:46:49.468Z,4.03
2023-03-15T01:49:43.073Z,2.60
2023-03-15T01:54:09.726Z,2.17
2023-03-15T01:55:56.806Z,4.25
2023-03-15T01:58:52.985Z,4.03
2023-03-15T02:01:29.602Z,4.97
2023-03-15T02:04:19.640Z,3.55
2023-03-15T02:07:02.238Z,2.00
2023-03-15T02:09:53.396Z,2.85
2023-03-15T02:13:06.889Z,2.20
2023-03-15T02:16:04.388Z,3.05
2023-03-15T02:19:43.256Z,3.85
2023-03-15T02:23:17.273Z,2.47
2023-03-15T02:25:59.293Z,2.67
2023-03-15T02:28:35.922Z,1.58
2023-03-15T02:31:12.401Z,3.17
2023-03-15T02:34:13.095Z,4.78
2023-03-15T02:40:51.749Z,4.10
2023-03-15T02:44:09.861Z,4.07
2023-03-15T02:46:47.123Z,3.70
2023-03-15T02:49:27.296Z,3.30
2023-03-15T02:51:57.172Z,2.30
2023-03-15T02:54:30.338Z,2.95
2023-03-15T02:57:21.795Z,3.80
2023-03-15T03:00:01.113Z,2.20
2023-03-15T03:03:07.435Z,3.08
2023-03-15T03:06:29.456Z,3.42
2023-03-15T03:13:43.839Z,2.83
2023-03-15T03:16:05.346Z,3.47
2023-03-15T03:19:00.669Z,2.80
2023-03-15T03:22:28.427Z,1.98
2023-03-15T03:28:59.759Z,3.50
2023-03-15T03:32:15.530Z,3.28
2023-03-15T03:39:50.503Z,3.60
2023-03-15T03:43:08.443Z,4.10
2023-03-15T03:50:01.248Z,2.63
2023-03-15T03:57:10.818Z,1.13
2023-03-15T04:00:44.549Z,1.40
2023-03-15T04:03:21.085Z,3.10
2023-03-15T04:22:41.263Z,3.05
2023-03-15T04:26:36.553Z,2.65
2023-03-15T04:31:36.638Z,2.33
2023-03-15T04:35:01.176Z,3.10
2023-03-15T04:42:44.995Z,2.35
2023-03-15T05:06:34.804Z,2.95
2023-03-15T05:10:15.667Z,3.60
2023-03-15T05:13:04.576Z,3.38
2023-03-15T05:16:05.746Z,3.20
2023-03-15T05:18:54.286Z,2.90
2023-03-15T05:21:48.711Z,2.13
2023-03-15T05:24:39.795Z,4.35
2023-03-15T05:27:34.621Z,4.20
2023-03-15T05:30:42.851Z,2.70
2023-03-15T05:33:29.700Z,4.18
2023-03-15T05:36:22.283Z,4.20
2023-03-15T05:39:00.251Z,4.30
2023-03-15T05:41:52.067Z,3.70
2023-03-15T05:44:40.649Z,3.88
2023-03-15T05:47:33.712Z,4.05
2023-03-15T05:50:34.533Z,4.43
2023-03-15T05:53:12.188Z,4.68
2023-03-15T05:55:58.890Z,4.15
2023-03-15T05:58:47.600Z,4.05
2023-03-15T06:01:41.320Z,4.63
2023-03-15T06:04:32.777Z,4.00
2023-03-15T06:07:02.288Z,4.50
2023-03-15T06:09:33.007Z,4.05
2023-03-15T06:12:01.619Z,3.67
2023-03-15T06:14:30.354Z,2.80
2023-03-15T06:17:02.760Z,3.78
2023-03-15T06:19:33.257Z,3.58
2023-03-15T06:22:02.301Z,4.15
2023-03-15T06:24:42.725Z,3.17
2023-03-15T06:27:11.411Z,3.63
2023-03-15T06:29:40.170Z,2.17
2023-03-15T06:32:09.455Z,1.52
2023-03-15T06:34:40.228Z,4.00
2023-03-15T06:37:08.638Z,2.20
2023-03-15T06:39:37.373Z,4.22
2023-03-15T06:42:08.346Z,3.17
2023-03-15T06:44:41.481Z,3.67
2023-03-15T06:47:11.549Z,3.17
2023-03-15T06:49:40.208Z,3.78
2023-03-15T06:52:09.361Z,3.80
2023-03-15T06:54:38.323Z,3.92
2023-03-15T06:57:06.939Z,3.47
2023-03-15T06:59:36.068Z,3.58
2023-03-15T07:02:05.087Z,3.70
2023-03-15T07:04:34.097Z,3.70
2023-03-15T07:07:02.588Z,3.67
2023-03-15T07:09:31.200Z,4.13
2023-03-15T07:11:59.387Z,3.85
2023-03-15T07:14:27.915Z,3.55
2023-03-15T07:16:56.237Z,3.88
2023-03-15T07:19:24.815Z,3.60
2023-03-15T07:21:53.099Z,3.97
2023-03-15T07:24:21.887Z,4.53
2023-03-15T07:26:54.798Z,4.57
2023-03-15T07:29:24.336Z,3.65
2023-03-15T07:31:54.534Z,3.42
2023-03-15T07:34:23.261Z,2.00
2023-03-15T07:36:51.458Z,2.08
2023-03-15T07:39:20.527Z,4.45
2023-03-15T07:41:49.018Z,3.13
2023-03-15T07:44:24.573Z,3.97
2023-03-15T07:46:52.867Z,3.80
2023-03-15T07:49:21.978Z,2.33
2023-03-15T07:51:50.236Z,3.20
2023-03-15T07:54:19.805Z,2.85
2023-03-15T07:56:48.109Z,4.63
2023-03-15T07:59:16.672Z,4.63
2023-03-15T08:01:45.083Z,4.53
2023-03-15T08:04:14.010Z,4.13
2023-03-15T08:06:42.233Z,4.97
2023-03-15T08:09:12.165Z,4.97
2023-03-15T08:11:41.657Z,4.00
2023-03-15T08:14:11.433Z,4.05
2023-03-15T08:16:39.935Z,5.57
2023-03-15T08:19:09.394Z,5.63
2023-03-15T08:21:37.628Z,4.88
2023-03-15T08:47:12.368Z,5.93
2023-03-15T08:49:41.115Z,5.15
2023-03-15T08:52:12.440Z,5.10
2023-03-15T08:54:41.168Z,4.55
2023-03-15T08:57:09.640Z,4.75
2023-03-15T08:59:38.754Z,9.13
2023-03-15T09:02:07.432Z,4.18
2023-03-15T09:04:36.162Z,5.85
2023-03-15T09:07:04.616Z,4.82
2023-03-15T09:09:33.848Z,3.15
2023-03-15T09:12:04.368Z,5.20
2023-03-15T09:14:33.007Z,5.50
2023-03-15T09:17:01.597Z,4.03
2023-03-15T09:22:16.443Z,4.15
2023-03-15T09:24:52.772Z,6.25
2023-03-15T09:27:21.226Z,5.15
2023-03-15T09:29:49.896Z,3.90
2023-03-15T09:32:18.197Z,5.13
2023-03-15T09:34:47.039Z,6.35
2023-03-15T09:37:17.728Z,3.75
2023-03-15T09:39:46.411Z,7.28
2023-03-15T09:42:22.963Z,7.53
2023-03-15T09:45:07.262Z,5.18
2023-03-15T09:48:26.571Z,6.53
2023-03-15T09:51:05.694Z,4.20
2023-03-15T09:53:39.375Z,8.05
2023-03-15T09:56:49.187Z,3.47
2023-03-15T09:59:23.204Z,4.03
2023-03-15T10:01:54.711Z,5.85
2023-03-15T10:04:35.104Z,6.10
2023-03-15T10:07:04.248Z,6.22
2023-03-15T10:09:35.016Z,4.75
2023-03-15T10:12:09.211Z,6.67
2023-03-15T10:15:43.809Z,6.60
2023-03-15T10:18:34.059Z,5.95
2023-03-15T10:21:16.371Z,5.85
2023-03-15T10:23:52.313Z,4.55
2023-03-15T10:26:28.084Z,3.65
2023-03-15T10:28:57.148Z,2.25
2023-03-15T10:31:44.165Z,3.67
2023-03-15T10:34:15.820Z,3.35
2023-03-15T10:36:55.846Z,4.13
2023-03-15T10:39:25.876Z,3.92
2023-03-15T10:41:54.443Z,4.70
2023-03-15T10:44:25.384Z,4.78
2023-03-15T10:47:23.056Z,4.32
2023-03-15T10:49:59.870Z,5.07
2023-03-15T10:52:38.949Z,4.57
2023-03-15T10:55:16.107Z,2.58
2023-03-15T10:58:00.010Z,4.03
2023-03-15T11:00:33.953Z,4.20
2023-03-15T11:03:29.575Z,4.43
2023-03-15T11:05:59.241Z,3.13
2023-03-15T11:08:40.124Z,4.38
2023-03-15T11:11:10.192Z,3.92
2023-03-15T11:13:40.645Z,4.75
2023-03-15T11:16:15.349Z,4.78
2023-03-15T11:19:12.184Z,4.03
2023-03-15T11:21:43.045Z,3.08
2023-03-15T11:24:23.162Z,3.58
2023-03-15T11:26:55.126Z,4.07
2023-03-15T11:29:27.457Z,4.30
2023-03-15T11:31:58.526Z,4.50
2023-03-15T11:34:38.783Z,3.15
2023-03-15T11:37:48.999Z,3.47
2023-03-15T11:40:22.935Z,4.43
2023-03-15T11:43:19.329Z,4.00
2023-03-15T11:46:00.860Z,4.00
2023-03-15T11:49:08.486Z,3.70
2023-03-15T11:51:37.383Z,4.53
2023-03-15T11:54:13.100Z,4.10
2023-03-15T11:56:44.430Z,4.00
2023-03-15T11:59:17.375Z,4.57
2023-03-15T12:01:52.187Z,3.40
2023-03-15T12:04:29.931Z,3.67
2023-03-15T12:07:03.481Z,3.55
2023-03-15T12:09:32.098Z,4.00
2023-03-15T12:12:02.631Z,3.88
2023-03-15T12:14:37.055Z,3.85
2023-03-15T12:17:24.166Z,4.10
2023-03-15T12:20:19.273Z,2.83
2023-03-15T12:22:52.425Z,2.28
2023-03-15T12:25:54.061Z,3.95
2023-03-15T12:28:28.814Z,4.30
2023-03-15T12:31:02.366Z,3.58
2023-03-15T12:33:32.924Z,4.43
2023-03-15T12:36:09.193Z,4.53
2023-03-15T12:38:43.174Z,4.47
2023-03-15T12:41:46.751Z,5.10
2023-03-15T12:44:27.753Z,4.55
2023-03-15T12:46:58.218Z,5.47
2023-03-15T12:49:42.981Z,5.85
2023-03-15T12:52:11.709Z,5.80
2023-03-15T12:55:01.855Z,5.95
2023-03-15T12:57:39.215Z,5.18
2023-03-15T13:00:15.231Z,4.97
2023-03-15T13:03:17.768Z,5.40
2023-03-15T13:05:54.483Z,4.30
2023-03-15T13:09:07.498Z,4.03
2023-03-15T13:11:44.387Z,3.38
2023-03-15T13:14:32.061Z,4.28
2023-03-15T13:17:32.143Z,3.40
2023-03-15T13:20:36.738Z,3.33
2023-03-15T13:23:26.333Z,3.38
2023-03-15T13:26:08.971Z,3.33
2023-03-15T13:31:31.628Z,2.13
2023-03-15T13:34:24.245Z,2.95
2023-03-15T13:39:29.264Z,2.47
2023-03-15T13:42:05.834Z,2.53
2023-03-15T13:44:36.770Z,2.58
2023-03-15T13:47:05.390Z,3.40
2023-03-15T13:49:34.778Z,2.17
2023-03-15T13:52:21.498Z,2.35
2023-03-15T13:54:54.116Z,2.60
2023-03-15T14:00:00.798Z,2.30
2023-03-15T14:02:55.244Z,2.22
2023-03-15T14:05:29.301Z,1.60
2023-03-15T14:08:04.421Z,1.92
2023-03-15T14:10:35.950Z,2.47
2023-03-15T14:13:22.328Z,3.07
2023-03-15T14:15:56.380Z,2.45
2023-03-15T14:18:26.835Z,2.70
2023-03-15T14:21:11.078Z,2.30
2023-03-15T14:23:43.603Z,2.55
2023-03-15T14:26:18.797Z,4.03
2023-03-15T14:29:01.972Z,4.05
2023-03-15T14:31:36.091Z,2.50
2023-03-15T14:34:33.670Z,3.97
2023-03-15T14:37:07.506Z,4.70
2023-03-15T14:39:35.855Z,5.30
2023-03-15T14:42:04.779Z,2.30
2023-03-15T14:44:33.256Z,3.25
2023-03-15T14:47:02.993Z,2.55
2023-03-15T14:49:31.502Z,2.80
2023-03-15T14:52:05.823Z,4.25
2023-03-15T14:54:34.592Z,2.92
2023-03-15T14:57:03.391Z,2.03
2023-03-15T14:59:31.782Z,2.05
2023-03-15T15:02:03.003Z,1.75
2023-03-15T15:04:34.385Z,2.20
2023-03-15T15:07:03.773Z,2.17
2023-03-15T15:09:32.035Z,3.20
2023-03-15T15:12:00.640Z,2.60
2023-03-15T15:14:29.099Z,6.20
2023-03-15T15:16:57.937Z,3.60
2023-03-15T15:19:26.338Z,4.97
2023-03-15T15:21:55.202Z,2.00
2023-03-15T15:24:27.065Z,2.42
2023-03-15T15:26:55.855Z,2.00
2023-03-15T15:29:24.853Z,3.15
2023-03-15T15:31:53.669Z,3.08
2023-03-15T15:34:22.104Z,2.20
2023-03-15T15:36:52.424Z,2.83
2023-03-15T15:39:29.794Z,2.47
2023-03-15T15:41:58.449Z,2.15
2023-03-15T15:44:26.947Z,2.92
2023-03-15T15:46:55.848Z,2.28
2023-03-15T15:49:24.319Z,2.67
2023-03-15T15:51:53.358Z,4.13
2023-03-15T15:54:26.764Z,2.40
2023-03-15T15:57:00.634Z,3.95
2023-03-15T15:59:30.816Z,3.95
2023-03-15T16:02:02.102Z,3.40
2023-03-15T16:04:32.743Z,2.05
2023-03-15T16:07:03.825Z,2.67
2023-03-15T16:09:37.659Z,4.55
2023-03-15T16:12:27.413Z,5.72
2023-03-15T16:14:56.007Z,4.57
2023-03-15T16:17:27.411Z,3.40
2023-03-15T16:19:55.848Z,3.45
2023-03-15T16:22:25.376Z,5.05
2023-03-15T16:24:57.273Z,2.70
2023-03-15T16:27:30.769Z,3.63
2023-03-15T16:29:59.447Z,3.80
2023-03-15T16:32:43.554Z,4.60
2023-03-15T16:35:15.940Z,3.38
2023-03-15T16:37:46.362Z,4.55
2023-03-15T16:40:42.715Z,5.45
2023-03-15T16:43:13.302Z,3.42
2023-03-15T16:45:41.898Z,5.50
2023-03-15T16:48:12.266Z,4.35
2023-03-15T16:50:42.072Z,4.03
2023-03-15T16:53:13.539Z,5.53
2023-03-15T16:55:41.994Z,14.00
2023-03-15T16:58:25.133Z,8.60
2023-03-15T17:00:54.069Z,9.75
2023-03-15T17:03:22.659Z,24.42
2023-03-15T17:05:51.491Z,20.00
2023-03-15T17:08:21.180Z,4.95
2023-03-15T17:10:49.996Z,2.10
2023-03-15T17:13:26.126Z,4.28
2023-03-15T17:15:54.977Z,4.93
2023-03-15T17:18:24.264Z,8.95
2023-03-15T17:20:53.104Z,4.70
2023-03-15T17:23:21.988Z,3.50
2023-03-15T17:25:51.295Z,3.80
2023-03-15T17:28:19.754Z,3.63
2023-03-15T17:30:51.546Z,2.78
2023-03-15T17:33:32.096Z,3.38
2023-03-15T17:36:01.658Z,3.40
2023-03-15T17:38:33.883Z,7.68
2023-03-15T17:41:02.670Z,4.78
2023-03-15T17:43:31.101Z,4.55
2023-03-15T17:45:59.767Z,12.88
2023-03-15T17:48:28.196Z,46.60
2023-03-15T17:50:57.218Z,34.42
2023-03-15T17:53:25.595Z,11.27
2023-03-15T17:55:54.459Z,4.93
2023-03-15T17:58:24.563Z,4.22
2023-03-15T18:00:54.954Z,5.20
2023-03-15T18:03:24.221Z,4.95
2023-03-15T18:05:53.121Z,7.30
2023-03-15T18:08:21.609Z,7.35
2023-03-15T18:10:51.626Z,24.58
2023-03-15T18:13:21.639Z,25.30
2023-03-15T18:16:15.401Z,40.97
2023-03-15T18:18:45.181Z,21.75
2023-03-15T18:21:35.803Z,19.25
2023-03-15T18:24:08.513Z,18.90
2023-03-15T18:26:53.786Z,26.92
2023-03-15T18:29:23.545Z,25.27
2023-03-15T18:31:52.471Z,24.55
2023-03-15T18:34:24.604Z,18.25
2023-03-15T18:37:05.036Z,14.52
2023-03-15T18:39:55.068Z,13.20
2023-03-15T18:42:27.359Z,15.15
2023-03-15T18:45:00.701Z,15.43
2023-03-15T18:47:36.012Z,15.02
2023-03-15T18:50:10.559Z,15.40
2023-03-15T18:52:47.418Z,16.40
2023-03-15T18:55:21.967Z,17.50
2023-03-15T19:01:53.911Z,10.27
2023-03-15T19:04:40.431Z,6.95
2023-03-15T19:07:09.677Z,5.90
2023-03-15T19:09:38.218Z,5.95
2023-03-15T19:12:20.492Z,9.00
2023-03-15T19:15:12.596Z,10.60
2023-03-15T19:18:44.091Z,10.52
2023-03-15T19:21:13.315Z,11.02
2023-03-15T19:23:42.075Z,11.82
2023-03-15T19:26:15.245Z,12.95
2023-03-15T19:28:44.229Z,15.07
2023-03-15T19:31:37.476Z,22.05
2023-03-15T19:34:06.418Z,20.88
2023-03-15T19:36:37.545Z,22.20
2023-03-15T19:39:10.640Z,25.23
2023-03-15T19:42:05.480Z,30.10
2023-03-15T19:48:04.496Z,24.15
2023-03-15T19:50:34.448Z,32.13
2023-03-15T19:53:04.440Z,23.65
2023-03-15T19:55:35.928Z,24.27
2023-03-15T19:58:04.814Z,31.20
2023-03-15T20:00:33.588Z,22.67
2023-03-15T20:03:04.923Z,24.45
2023-03-15T20:08:05.484Z,21.40
2023-03-15T21:01:24.159Z,17.75
2023-03-15T21:03:56.617Z,14.25
2023-03-15T21:06:26.128Z,16.33
2023-03-15T21:08:58.502Z,14.95
2023-03-15T21:11:33.481Z,15.25
2023-03-15T21:14:02.278Z,17.23
2023-03-15T21:16:46.548Z,18.63
2023-03-15T21:19:29.597Z,19.98
2023-03-15T21:22:01.068Z,18.50
2023-03-15T21:24:36.605Z,17.98
2023-03-15T21:27:22.554Z,16.63
2023-03-15T21:29:59.276Z,15.52
2023-03-15T21:32:28.546Z,14.30
2023-03-15T21:34:57.110Z,13.35
2023-03-15T21:40:05.739Z,13.38
2023-03-15T21:42:35.998Z,10.50
2023-03-15T21:45:08.876Z,10.82
2023-03-15T21:47:38.102Z,12.50
2023-03-15T21:50:07.552Z,13.65
2023-03-15T21:52:37.760Z,13.40
2023-03-15T21:55:07.961Z,14.73
2023-03-15T21:57:39.105Z,18.45
2023-03-15T22:00:19.124Z,20.95
2023-03-15T22:02:55.887Z,20.67
2023-03-15T22:05:36.902Z,20.83
2023-03-15T22:08:23.238Z,19.60
2023-03-15T22:11:13.780Z,14.88
2023-03-15T22:13:48.314Z,15.98
2023-03-15T22:52:57.593Z,14.82
2023-03-15T23:03:34.062Z,11.90
